Time,TemperatureF,DewpointF,PressureIn,WindDirection,WindDirectionDegrees,WindSpeedMPH,WindSpeedGustMPH,Humidity,HourlyPrecipIn,Conditions,Clouds,dailyrainin,SolarRadiationWatts/m^2,SoftwareType,DateUTC
2013-12-17 00:01:00,47.0,21.0,-100.00,SSE,155,3.0,6.0,35,0.00,,,-99.99,0.000000,,2013-12-17 08:01:00,
2013-12-17 00:02:00,46.0,20.0,-100.00,SE,126,3.0,4.0,35,0.00,,,0.00,0.000000,,2013-12-17 08:02:00,
2013-12-17 00:42:00,46.0,20.0,-100.00,SE,126,3.0,4.0,35,0.00,,,0.00,0.000000,,2013-12-17 08:42:00,
2013-12-17 00:52:00,46.0,20.0,-100.00,SE,126,3.0,4.0,35,0.00,,,0.00,0.000000,,2013-12-17 08:52:00,
2013-12-17 01:02:00,48.0,19.0,-100.00,SSE,155,3.0,6.0,31,0.00,,,-99.99,0.000000,,2013-12-17 09:02:00,
2013-12-17 01:43:00,48.0,19.0,-100.00,SSE,155,3.0,6.0,31,0.00,,,-99.99,0.000000,,2013-12-17 09:43:00,
2013-12-17 01:53:00,48.0,19.0,-100.00,SSE,155,3.0,6.0,31,0.00,,,-99.99,0.000000,,2013-12-17 09:53:00,
2013-12-17 02:02:00,47.0,19.0,-100.00,SSE,159,3.0,4.0,33,0.00,,,0.00,0.000000,,2013-12-17 10:02:00,
2013-12-17 02:43:00,47.0,19.0,-100.00,SSE,159,3.0,4.0,33,0.00,,,0.00,0.000000,,2013-12-17 10:43:00,
2013-12-17 02:53:00,47.0,19.0,-100.00,SSE,159,3.0,4.0,33,0.00,,,0.00,0.000000,,2013-12-17 10:53:00,
2013-12-17 03:02:00,46.0,19.0,-100.00,ESE,123,3.0,4.0,33,0.00,,,0.00,0.000000,,2013-12-17 11:02:00,
2013-12-17 03:42:00,46.0,19.0,-100.00,ESE,123,3.0,4.0,33,0.00,,,0.00,0.000000,,2013-12-17 11:42:00,
2013-12-17 03:52:00,46.0,19.0,-100.00,ESE,123,3.0,4.0,33,0.00,,,0.00,0.000000,,2013-12-17 11:52:00,
2013-12-17 04:42:00,46.0,19.0,-100.00,SSE,151,2.0,4.0,33,0.00,,,0.00,0.000000,,2013-12-17 12:42:00,
2013-12-17 04:52:00,46.0,19.0,-100.00,SSE,151,2.0,4.0,33,0.00,,,0.00,0.000000,,2013-12-17 12:52:00,
2013-12-17 05:01:00,46.0,19.0,-100.00,SSE,151,2.0,4.0,33,0.00,,,0.00,0.000000,,2013-12-17 13:01:00,
2013-12-17 05:42:00,45.0,18.0,-100.00,SSE,160,3.0,4.0,34,0.00,,,0.00,0.000000,,2013-12-17 13:42:00,
2013-12-17 05:52:00,45.0,18.0,-100.00,SSE,160,3.0,4.0,34,0.00,,,0.00,0.000000,,2013-12-17 13:52:00,
2013-12-17 06:01:00,45.0,18.0,-100.00,SSE,160,3.0,4.0,34,0.00,,,0.00,0.000000,,2013-12-17 14:01:00,
2013-12-17 06:02:00,45.0,19.0,-100.00,SSE,153,3.0,4.0,35,0.00,,,0.00,0.000000,,2013-12-17 14:02:00,
2013-12-17 06:42:00,45.0,19.0,-100.00,SSE,153,3.0,4.0,35,0.00,,,0.00,0.000000,,2013-12-17 14:42:00,
2013-12-17 06:52:00,45.0,19.0,-100.00,SSE,153,3.0,4.0,35,0.00,,,0.00,0.000000,,2013-12-17 14:52:00,
2013-12-17 07:02:00,44.0,19.0,-100.00,ESE,121,3.0,4.0,36,0.00,,,0.00,2.000000,,2013-12-17 15:02:00,
2013-12-17 07:44:00,44.0,19.0,-100.00,ESE,121,3.0,4.0,36,0.00,,,0.00,2.000000,,2013-12-17 15:44:00,
2013-12-17 07:53:00,44.0,19.0,-100.00,ESE,121,3.0,4.0,36,0.00,,,0.00,2.000000,,2013-12-17 15:53:00,
2013-12-17 08:02:00,46.0,19.0,-100.00,SSE,164,2.0,3.0,34,0.00,,,0.00,49.000000,,2013-12-17 16:02:00,
2013-12-17 08:23:00,46.0,19.0,-100.00,SSE,164,2.0,3.0,34,0.00,,,0.00,49.000000,,2013-12-17 16:23:00,
2013-12-17 08:33:00,46.0,19.0,-100.00,SSE,164,2.0,3.0,34,0.00,,,0.00,49.000000,,2013-12-17 16:33:00,
2013-12-17 08:43:00,46.0,19.0,-100.00,SSE,164,2.0,3.0,34,0.00,,,0.00,49.000000,,2013-12-17 16:43:00,
2013-12-17 08:52:00,46.0,19.0,-100.00,SSE,164,2.0,3.0,34,0.00,,,0.00,49.000000,,2013-12-17 16:52:00,
2013-12-17 09:02:00,51.0,23.0,-100.00,South,180,3.0,4.0,33,0.00,,,0.00,159.000000,,2013-12-17 17:02:00,
2013-12-17 09:23:00,51.0,23.0,-100.00,South,180,3.0,4.0,33,0.00,,,0.00,159.000000,,2013-12-17 17:23:00,
2013-12-17 09:33:00,51.0,23.0,-100.00,South,180,3.0,4.0,33,0.00,,,0.00,159.000000,,2013-12-17 17:33:00,
2013-12-17 09:42:00,51.0,23.0,-100.00,South,180,3.0,4.0,33,0.00,,,0.00,159.000000,,2013-12-17 17:42:00,
2013-12-17 09:53:00,51.0,23.0,-100.00,South,180,3.0,4.0,33,0.00,,,0.00,159.000000,,2013-12-17 17:53:00,
2013-12-17 10:42:00,57.0,22.0,-100.00,SW,214,5.0,7.0,25,0.00,,,0.00,485.000000,,2013-12-17 18:42:00,
2013-12-17 10:52:00,57.0,22.0,-100.00,SW,214,5.0,7.0,25,0.00,,,0.00,485.000000,,2013-12-17 18:52:00,
2013-12-17 11:01:00,57.0,22.0,-100.00,SW,214,5.0,7.0,25,0.00,,,0.00,485.000000,,2013-12-17 19:01:00,
2013-12-17 11:42:00,58.0,23.0,-100.00,SW,216,4.0,7.0,26,0.00,,,0.00,538.000000,,2013-12-17 19:42:00,
2013-12-17 11:52:00,58.0,23.0,-100.00,SW,216,4.0,7.0,26,0.00,,,0.00,538.000000,,2013-12-17 19:52:00,
2013-12-17 12:01:00,58.0,23.0,-100.00,SW,216,4.0,7.0,26,0.00,,,0.00,538.000000,,2013-12-17 20:01:00,
2013-12-17 12:02:00,60.0,24.0,-100.00,SW,222,4.0,7.0,25,0.00,,,0.00,625.000000,,2013-12-17 20:02:00,
2013-12-17 12:42:00,60.0,24.0,-100.00,SW,222,4.0,7.0,25,0.00,,,0.00,625.000000,,2013-12-17 20:42:00,
2013-12-17 12:52:00,60.0,24.0,-100.00,SW,222,4.0,7.0,25,0.00,,,0.00,625.000000,,2013-12-17 20:52:00,
2013-12-17 13:02:00,62.0,25.0,-100.00,SW,218,5.0,7.0,24,0.00,,,0.00,667.000000,,2013-12-17 21:02:00,
2013-12-17 13:43:00,62.0,25.0,-100.00,SW,218,5.0,7.0,24,0.00,,,0.00,667.000000,,2013-12-17 21:43:00,
2013-12-17 13:53:00,62.0,25.0,-100.00,SW,218,5.0,7.0,24,0.00,,,0.00,667.000000,,2013-12-17 21:53:00,
2013-12-17 14:02:00,63.0,26.0,-100.00,WSW,238,4.0,7.0,24,0.00,,,0.00,562.000000,,2013-12-17 22:02:00,
2013-12-17 14:43:00,63.0,26.0,-100.00,WSW,238,4.0,7.0,24,0.00,,,0.00,562.000000,,2013-12-17 22:43:00,
2013-12-17 14:53:00,63.0,26.0,-100.00,WSW,238,4.0,7.0,24,0.00,,,0.00,562.000000,,2013-12-17 22:53:00,
2013-12-17 15:02:00,61.0,25.0,-100.00,SW,231,4.0,7.0,25,0.00,,,0.00,434.000000,,2013-12-17 23:02:00,
2013-12-17 15:42:00,61.0,25.0,-100.00,SW,231,4.0,7.0,25,0.00,,,0.00,434.000000,,2013-12-17 23:42:00,
2013-12-17 15:53:00,61.0,25.0,-100.00,SW,231,4.0,7.0,25,0.00,,,0.00,434.000000,,2013-12-17 23:53:00,
2013-12-17 16:02:00,55.0,23.0,-100.00,SSW,202,3.0,4.0,28,0.00,,,0.00,91.000000,,2013-12-18 00:02:00,
2013-12-17 16:32:00,55.0,23.0,-100.00,SSW,202,3.0,4.0,28,0.00,,,0.00,91.000000,,2013-12-18 00:32:00,
2013-12-17 16:42:00,55.0,23.0,-100.00,SSW,202,3.0,4.0,28,0.00,,,0.00,91.000000,,2013-12-18 00:42:00,
2013-12-17 16:52:00,55.0,23.0,-100.00,SSW,202,3.0,4.0,28,0.00,,,0.00,91.000000,,2013-12-18 00:52:00,
2013-12-17 17:42:00,50.0,26.0,-100.00,East,88,2.0,4.0,39,0.00,,,0.00,14.000000,,2013-12-18 01:42:00,
2013-12-17 17:52:00,50.0,26.0,-100.00,East,88,2.0,4.0,39,0.00,,,0.00,14.000000,,2013-12-18 01:52:00,
2013-12-17 18:01:00,50.0,26.0,-100.00,East,88,2.0,4.0,39,0.00,,,0.00,14.000000,,2013-12-18 02:01:00,
2013-12-17 18:02:00,49.0,25.0,-100.00,ENE,77,2.0,4.0,38,0.00,,,0.00,0.000000,,2013-12-18 02:02:00,
2013-12-17 18:42:00,49.0,25.0,-100.00,ENE,77,2.0,4.0,38,0.00,,,0.00,0.000000,,2013-12-18 02:42:00,
2013-12-17 18:52:00,49.0,25.0,-100.00,ENE,77,2.0,4.0,38,0.00,,,0.00,0.000000,,2013-12-18 02:52:00,
2013-12-17 19:02:00,51.0,23.0,-100.00,East,100,3.0,5.0,33,0.00,,,0.00,0.000000,,2013-12-18 03:02:00,
2013-12-17 19:44:00,51.0,23.0,-100.00,East,100,3.0,5.0,33,0.00,,,0.00,0.000000,,2013-12-18 03:44:00,
2013-12-17 19:53:00,51.0,23.0,-100.00,East,100,3.0,5.0,33,0.00,,,0.00,0.000000,,2013-12-18 03:53:00,
2013-12-17 22:02:00,60.0,20.0,-100.00,South,177,4.0,8.0,21,-99.99,,,0.00,0.000000,,2013-12-18 06:02:00,
2013-12-17 22:42:00,60.0,20.0,-100.00,South,177,4.0,8.0,21,-99.99,,,0.00,0.000000,,2013-12-18 06:42:00,
2013-12-17 22:53:00,60.0,20.0,-100.00,South,177,4.0,8.0,21,-99.99,,,0.00,0.000000,,2013-12-18 06:53:00,
2013-12-17 23:42:00,57.0,16.0,-100.00,WNW,289,3.0,4.0,20,0.00,,,0.00,0.000000,,2013-12-18 07:42:00,
2013-12-17 23:53:00,57.0,16.0,-100.00,WNW,289,3.0,4.0,20,0.00,,,0.00,0.000000,,2013-12-18 07:53:00,